Terminal Aerodrome Forecast
Issued by NWS

Home | Current Version | Previous Version | Text Only | Print | Product List | Glossary On
Versions: 1 2 3 4 5 6 7 8 9 10 11 12 13
000
FTUS42 KTBW 272300
TAFRSW
TAF
KRSW 272329Z 2800/2824 07005KT P6SM SCT060
     FM281400 14005KT P6SM SCT035
     FM281800 16006KT P6SM VCTS SCT040CB=

USA.gov is the U.S. government's official web portal to all federal, state and local government web resources and services.